Time;durP1;ratioP1;P1;durP2;ratioP2;P2;SDS_P1;SDS_P2;PMS_P1;PMS_P2;Temp;Humidity;BMP_temperature;BMP_pressure;BME280_temperature;BME280_humidity;BME280_pressure;Samples;Min_cycle;Max_cycle;Signal;HPM_P1;HPM_P2
2022/04/03 00:01:56;;;;;;;1.80;0.50;;;-0.40;93.10;;;;;;5056747;28;20040;-85
2022/04/03 00:04:26;;;;;;;1.60;0.40;;;-0.40;93.20;;;;;;5073732;28;20044;-85
2022/04/03 00:07:00;;;;;;;1.90;0.50;;;-0.50;93.30;;;;;;5070961;28;20036;-84
2022/04/03 00:09:35;;;;;;;2.47;0.50;;;-0.50;93.40;;;;;;5041642;28;20039;-84
2022/04/03 00:12:03;;;;;;;3.47;0.50;;;-0.50;93.60;;;;;;5056501;28;20039;-86
2022/04/03 00:14:54;;;;;;;1.70;0.60;;;-0.50;93.80;;;;;;5086479;28;20060;-85
2022/04/03 00:17:22;;;;;;;2.47;0.57;;;-0.50;94.00;;;;;;5067198;28;20048;-85
2022/04/03 00:20:00;;;;;;;7.10;1.63;;;-0.50;94.10;;;;;;5093030;28;20035;-84
2022/04/03 00:23:10;;;;;;;5.63;1.23;;;-0.50;94.30;;;;;;5093587;28;20040;-84
2022/04/03 00:25:49;;;;;;;2.55;0.98;;;-0.50;94.40;;;;;;5048862;28;20070;-81
2022/04/03 00:28:33;;;;;;;3.87;1.43;;;-0.60;94.60;;;;;;5056893;28;20052;-82
2022/04/03 00:31:07;;;;;;;2.30;1.30;;;-0.60;94.70;;;;;;5069745;28;20055;-83
2022/04/03 00:33:36;;;;;;;2.70;0.70;;;-0.60;95.00;;;;;;5056405;28;20032;-84
2022/04/03 00:36:06;;;;;;;2.30;1.10;;;-0.60;95.20;;;;;;5072606;28;20047;-83
2022/04/03 00:38:46;;;;;;;1.70;0.50;;;-0.60;95.30;;;;;;5075988;28;20052;-83
2022/04/03 00:41:22;;;;;;;3.03;0.57;;;-0.60;95.70;;;;;;5075514;28;20028;-83
2022/04/03 00:44:14;;;;;;;3.77;0.60;;;-0.60;95.70;;;;;;5071982;28;20037;-83
2022/04/03 00:46:51;;;;;;;1.60;0.50;;;-0.50;95.90;;;;;;5025246;28;20037;-83
2022/04/03 00:49:40;;;;;;;3.10;0.90;;;-0.60;95.90;;;;;;4997932;28;20400;-82
2022/04/03 00:52:37;;;;;;;5.63;1.47;;;-0.60;96.10;;;;;;5047528;28;20049;-83
2022/04/03 00:55:08;;;;;;;3.83;0.80;;;-0.60;96.30;;;;;;5015022;28;20045;-84
2022/04/03 00:57:57;;;;;;;1.77;0.57;;;-0.60;96.40;;;;;;5032668;28;20057;-83
2022/04/03 01:00:25;;;;;;;1.87;0.50;;;-0.60;96.60;;;;;;5031258;28;20283;-84
2022/04/03 01:02:52;;;;;;;2.90;0.50;;;-0.70;96.60;;;;;;5031510;28;20037;-85
2022/04/03 01:05:38;;;;;;;1.40;0.60;;;-0.70;96.80;;;;;;5015941;28;20049;-84
2022/04/03 01:08:17;;;;;;;2.00;0.50;;;-0.70;96.90;;;;;;5007859;28;20822;-82
2022/04/03 01:10:45;;;;;;;2.33;0.40;;;-0.70;97.00;;;;;;5049739;28;20041;-82
2022/04/03 01:13:25;;;;;;;2.90;0.60;;;-0.70;97.20;;;;;;5016933;28;20056;-82
2022/04/03 01:16:32;;;;;;;1.80;0.70;;;-0.80;97.40;;;;;;5085601;28;20048;-82
2022/04/03 01:19:08;;;;;;;2.17;0.47;;;-0.80;97.70;;;;;;5092047;28;20043;-82
2022/04/03 01:21:45;;;;;;;1.80;0.40;;;-0.80;97.70;;;;;;5066383;28;20156;-82
2022/04/03 01:24:21;;;;;;;2.53;0.30;;;-0.80;97.80;;;;;;5093744;28;20036;-82
2022/04/03 01:26:52;;;;;;;2.17;0.80;;;-0.80;97.90;;;;;;5091725;28;20043;-83
2022/04/03 01:29:43;;;;;;;3.37;0.50;;;-0.80;98.00;;;;;;5100465;27;20027;-83
2022/04/03 01:32:11;;;;;;;1.40;0.40;;;-0.80;98.10;;;;;;5076688;28;20028;-82
2022/04/03 01:34:43;;;;;;;2.77;0.60;;;-0.80;98.30;;;;;;5073937;28;20051;-83
2022/04/03 01:37:15;;;;;;;1.73;0.60;;;-0.90;98.40;;;;;;5093295;28;20402;-83
2022/04/03 01:39:42;;;;;;;1.75;0.52;;;-0.90;98.60;;;;;;5094451;27;20039;-83
2022/04/03 01:42:13;;;;;;;2.87;0.60;;;-0.90;98.70;;;;;;5088930;28;20548;-82
2022/04/03 01:44:45;;;;;;;2.20;0.60;;;-0.90;98.90;;;;;;5090963;28;20043;-83
2022/04/03 01:47:32;;;;;;;;;;;-1.00;99.10;;;;;;5094913;27;20058;-83
2022/04/03 01:50:04;;;;;;;1.93;0.57;;;-1.00;99.30;;;;;;5015742;28;19931;-83
2022/04/03 01:52:37;;;;;;;2.77;0.57;;;-1.00;99.40;;;;;;5037248;28;20052;-83
2022/04/03 01:55:11;;;;;;;2.50;0.63;;;-1.10;99.50;;;;;;5034836;28;20053;-83
2022/04/03 01:57:44;;;;;;;2.70;0.50;;;-1.10;99.80;;;;;;5052711;28;20047;-83
2022/04/03 02:00:12;;;;;;;;;;;-1.10;99.90;;;;;;5043203;28;20056;-83
2022/04/03 02:02:39;;;;;;;2.73;0.47;;;-1.10;99.90;;;;;;5065660;28;20026;-83
2022/04/03 02:05:30;;;;;;;2.87;0.70;;;-1.20;99.90;;;;;;5065479;28;20056;-84
2022/04/03 02:08:01;;;;;;;2.60;0.50;;;-1.20;99.90;;;;;;5074710;28;20055;-83
2022/04/03 02:11:16;;;;;;;1.40;0.43;;;-1.20;99.90;;;;;;5059711;28;20037;-84
2022/04/03 02:13:52;;;;;;;6.10;0.60;;;-1.20;99.90;;;;;;5041213;28;20395;-84
2022/04/03 02:16:22;;;;;;;3.10;0.43;;;-1.10;99.90;;;;;;5032318;28;20064;-82
2022/04/03 02:19:03;;;;;;;1.60;0.60;;;-1.20;99.90;;;;;;5048186;28;20028;-83
2022/04/03 02:21:38;;;;;;;1.53;0.50;;;-1.20;99.90;;;;;;5093011;27;20058;-83
2022/04/03 02:24:08;;;;;;;4.23;0.80;;;-1.20;99.90;;;;;;5123928;27;20043;-83
2022/04/03 02:26:38;;;;;;;1.97;0.70;;;-1.20;99.90;;;;;;5084645;27;20039;-83
2022/04/03 02:29:06;;;;;;;1.87;0.70;;;-1.10;99.90;;;;;;5080123;28;20050;-83
2022/04/03 02:31:40;;;;;;;6.20;0.70;;;-1.20;99.90;;;;;;5095427;27;20039;-83
2022/04/03 02:34:07;;;;;;;2.40;0.60;;;-1.10;99.90;;;;;;5130837;27;20045;-83
2022/04/03 02:36:45;;;;;;;2.47;0.70;;;-1.10;99.90;;;;;;5114568;27;20033;-85
2022/04/03 02:39:20;;;;;;;2.97;0.60;;;-1.10;99.90;;;;;;5131728;27;20039;-83
2022/04/03 02:41:47;;;;;;;2.93;0.60;;;-1.10;99.90;;;;;;5080071;28;20047;-84
2022/04/03 02:44:18;;;;;;;12.87;2.03;;;-1.10;99.90;;;;;;5078070;28;20047;-84
2022/04/03 02:46:53;;;;;;;1.40;0.50;;;-1.10;99.90;;;;;;5096251;28;20466;-84
2022/04/03 02:49:27;;;;;;;;;;;-1.10;99.90;;;;;;5097303;28;20035;-84
2022/04/03 02:52:03;;;;;;;3.70;0.70;;;-1.20;99.90;;;;;;5112742;28;19907;-84
2022/04/03 02:54:33;;;;;;;2.60;0.60;;;-1.10;99.90;;;;;;5097457;28;20046;-85
2022/04/03 02:57:12;;;;;;;1.47;0.50;;;-1.10;99.90;;;;;;5095225;27;20035;-85
2022/04/03 02:59:40;;;;;;;1.87;0.60;;;-1.10;99.90;;;;;;5113002;27;20039;-85
2022/04/03 03:02:11;;;;;;;1.93;0.60;;;-1.00;99.90;;;;;;5097138;28;20042;-85
2022/04/03 03:04:42;;;;;;;3.80;0.60;;;-1.00;99.90;;;;;;5096794;27;20035;-85
2022/04/03 03:07:09;;;;;;;1.47;0.50;;;-0.90;99.90;;;;;;5044974;28;20039;-86
2022/04/03 03:09:38;;;;;;;2.50;0.70;;;-0.90;99.90;;;;;;5112622;28;20044;-85
2022/04/03 03:12:21;;;;;;;3.87;0.73;;;-0.80;99.90;;;;;;5097443;28;20429;-86
2022/04/03 03:15:07;;;;;;;1.63;0.50;;;-0.80;99.90;;;;;;5069245;28;20040;-86
2022/04/03 03:17:41;;;;;;;4.50;0.60;;;-0.80;99.90;;;;;;5081147;28;20035;-85
2022/04/03 03:20:10;;;;;;;3.50;0.70;;;-0.70;99.90;;;;;;5067585;28;20035;-85
2022/04/03 03:22:37;;;;;;;1.70;0.60;;;-0.60;99.90;;;;;;5050113;28;20048;-85
2022/04/03 03:25:05;;;;;;;3.87;0.77;;;-0.50;99.90;;;;;;5051115;28;20031;-86
2022/04/03 03:27:32;;;;;;;1.30;0.60;;;-0.40;99.90;;;;;;5084896;28;20028;-85
2022/04/03 03:29:59;;;;;;;2.00;0.50;;;-0.40;99.90;;;;;;5054917;28;20036;-85
2022/04/03 03:32:26;;;;;;;2.37;0.77;;;-0.30;99.90;;;;;;5048169;28;20039;-86
2022/04/03 03:34:52;;;;;;;2.10;0.70;;;-0.20;99.90;;;;;;5057884;28;20055;-86
2022/04/03 03:37:19;;;;;;;1.67;0.70;;;-0.20;99.90;;;;;;5092755;28;20031;-85
2022/04/03 03:39:47;;;;;;;1.93;0.70;;;-0.20;99.90;;;;;;5043005;28;20040;-85
2022/04/03 03:42:14;;;;;;;3.30;0.70;;;-0.20;99.90;;;;;;5065746;28;20462;-86
2022/04/03 03:44:41;;;;;;;1.23;0.50;;;-0.30;99.90;;;;;;5059623;28;20059;-85
2022/04/03 03:47:08;;;;;;;2.90;0.50;;;-0.30;99.90;;;;;;5073801;28;20414;-85
2022/04/03 03:49:36;;;;;;;2.03;0.60;;;-0.30;99.90;;;;;;5091159;28;20038;-86
2022/04/03 03:52:03;;;;;;;1.43;0.50;;;-0.30;99.90;;;;;;5091363;28;20031;-86
2022/04/03 03:54:29;;;;;;;2.63;0.70;;;-0.30;99.90;;;;;;5056111;28;20471;-86
2022/04/03 03:56:56;;;;;;;1.83;0.50;;;-0.20;99.90;;;;;;5058812;28;20044;-86
2022/04/03 03:59:23;;;;;;;3.40;0.73;;;-0.20;99.90;;;;;;5075960;28;20046;-86
2022/04/03 04:01:49;;;;;;;1.57;0.50;;;-0.10;99.90;;;;;;5059273;28;20042;-86
2022/04/03 04:04:16;;;;;;;2.27;0.50;;;-0.10;99.90;;;;;;5043495;28;20031;-85
2022/04/03 04:06:42;;;;;;;2.53;0.70;;;-0.10;99.90;;;;;;5058854;28;20058;-85
2022/04/03 04:09:09;;;;;;;1.40;0.50;;;0.00;99.90;;;;;;5057988;28;20509;-86
2022/04/03 04:11:36;;;;;;;3.83;0.70;;;0.00;99.90;;;;;;5074456;28;20060;-86
2022/04/03 04:14:02;;;;;;;2.47;0.60;;;0.10;99.90;;;;;;5027059;28;20031;-86
2022/04/03 04:16:32;;;;;;;4.00;0.67;;;0.10;99.90;;;;;;5057986;28;20052;-86
2022/04/03 04:18:58;;;;;;;2.00;0.50;;;0.20;99.90;;;;;;5084143;28;20041;-86
2022/04/03 04:21:56;;;;;;;1.97;0.70;;;0.20;99.90;;;;;;5077564;28;20039;-85
2022/04/03 04:24:37;;;;;;;0.93;0.40;;;0.20;99.90;;;;;;5031226;28;20048;-85
2022/04/03 04:27:03;;;;;;;1.23;0.50;;;0.30;99.90;;;;;;5022431;28;20056;-85
2022/04/03 04:29:52;;;;;;;1.77;0.70;;;0.40;99.90;;;;;;5036583;28;20068;-84
2022/04/03 04:32:27;;;;;;;2.43;0.40;;;0.40;99.90;;;;;;5051753;28;20036;-84
2022/04/03 04:35:03;;;;;;;2.17;0.60;;;0.40;99.90;;;;;;5052981;28;20111;-85
2022/04/03 04:37:35;;;;;;;2.00;0.40;;;0.50;99.90;;;;;;5020959;28;20067;-85
2022/04/03 04:40:09;;;;;;;2.70;0.50;;;0.60;99.90;;;;;;5068638;28;20049;-85
2022/04/03 04:42:36;;;;;;;2.73;0.53;;;0.60;99.90;;;;;;5069987;28;20048;-85
2022/04/03 04:45:19;;;;;;;4.10;0.53;;;0.70;99.90;;;;;;5037256;28;20056;-83
2022/04/03 04:47:48;;;;;;;2.27;0.70;;;0.70;99.90;;;;;;5051452;28;20112;-83
2022/04/03 04:50:28;;;;;;;2.10;0.70;;;0.70;99.90;;;;;;5032420;28;20052;-83
2022/04/03 04:53:04;;;;;;;2.27;0.73;;;0.70;99.90;;;;;;5034790;28;20040;-83
2022/04/03 04:56:01;;;;;;;3.27;0.70;;;0.70;99.90;;;;;;5077616;28;20044;-85
2022/04/03 04:59:04;;;;;;;2.93;0.80;;;0.80;99.90;;;;;;5089970;28;20047;-85
2022/04/03 05:02:16;;;;;;;3.17;0.70;;;0.80;99.90;;;;;;5075085;28;20036;-85
2022/04/03 05:06:16;;;;;;;1.87;0.70;;;0.90;99.90;;;;;;5093208;28;20044;-85
2022/04/03 05:09:27;;;;;;;2.87;0.70;;;0.90;99.90;;;;;;5092518;28;20026;-85
2022/04/03 05:12:47;;;;;;;1.13;0.60;;;0.90;99.90;;;;;;5076808;28;20051;-85
2022/04/03 05:15:41;;;;;;;1.40;0.40;;;1.00;99.90;;;;;;5050865;28;20047;-85
2022/04/03 05:18:10;;;;;;;2.77;0.50;;;1.00;99.90;;;;;;5050276;28;20068;-87
2022/04/03 05:20:58;;;;;;;1.13;0.50;;;1.10;99.90;;;;;;5051572;28;20044;-83
2022/04/03 05:24:01;;;;;;;2.30;0.47;;;1.10;99.90;;;;;;5045494;28;20052;-83
2022/04/03 05:26:43;;;;;;;1.70;0.50;;;1.20;99.90;;;;;;5037998;28;20074;-82
2022/04/03 05:29:23;;;;;;;1.40;0.50;;;1.20;99.90;;;;;;5066072;28;20611;-83
2022/04/03 05:32:32;;;;;;;0.83;0.33;;;1.30;99.90;;;;;;5066954;28;20048;-83
2022/04/03 05:35:16;;;;;;;2.10;0.40;;;1.30;99.90;;;;;;5046628;28;20044;-83
2022/04/03 05:37:49;;;;;;;2.00;0.50;;;1.40;99.90;;;;;;5050519;28;20040;-83
2022/04/03 05:41:31;;;;;;;1.70;0.40;;;1.40;99.90;;;;;;5045276;28;20172;-83
2022/04/03 05:44:04;;;;;;;3.33;0.50;;;1.50;99.90;;;;;;5050126;28;20036;-82
2022/04/03 05:46:33;;;;;;;1.67;0.40;;;1.60;99.90;;;;;;5033762;28;20043;-82
2022/04/03 05:49:06;;;;;;;1.07;0.40;;;1.70;99.90;;;;;;5045199;28;20049;-81
2022/04/03 05:51:37;;;;;;;2.53;0.50;;;1.70;99.90;;;;;;5035422;28;20052;-81
2022/04/03 05:54:24;;;;;;;1.83;0.50;;;1.80;99.90;;;;;;5040496;28;20037;-82
2022/04/03 05:57:14;;;;;;;1.45;0.50;;;1.90;99.90;;;;;;5051126;28;20036;-83
2022/04/03 06:00:27;;;;;;;2.50;0.60;;;2.00;99.90;;;;;;5049793;28;20155;-83
2022/04/03 06:03:05;;;;;;;1.55;0.45;;;2.00;99.90;;;;;;5023707;28;20052;-83
2022/04/03 06:06:26;;;;;;;3.30;0.60;;;2.00;99.90;;;;;;4992321;28;20046;-84
2022/04/03 06:09:08;;;;;;;2.40;0.47;;;2.10;99.90;;;;;;5052359;28;20050;-83
2022/04/03 06:11:46;;;;;;;1.67;0.60;;;2.20;99.90;;;;;;5091304;28;20273;-83
2022/04/03 06:14:23;;;;;;;2.57;0.57;;;2.20;99.90;;;;;;5092275;28;20028;-83
2022/04/03 06:16:56;;;;;;;1.40;0.60;;;2.30;99.90;;;;;;5109713;28;20063;-83
2022/04/03 06:19:31;;;;;;;1.60;0.60;;;2.20;99.90;;;;;;5090407;28;20495;-83
2022/04/03 06:22:22;;;;;;;2.83;0.50;;;2.20;99.90;;;;;;5091128;28;20036;-83
2022/04/03 06:25:15;;;;;;;1.40;0.50;;;2.20;99.90;;;;;;5070558;28;20054;-83
2022/04/03 06:27:45;;;;;;;3.53;0.60;;;2.20;99.90;;;;;;5073597;28;20048;-84
2022/04/03 06:30:24;;;;;;;3.30;0.70;;;2.20;99.90;;;;;;5091177;28;20035;-82
2022/04/03 06:33:18;;;;;;;2.67;0.60;;;2.20;99.90;;;;;;5108418;28;20031;-89
2022/04/03 06:35:49;;;;;;;1.57;0.50;;;2.40;99.90;;;;;;5109882;28;20483;-85
2022/04/03 06:38:16;;;;;;;2.17;0.40;;;2.60;99.90;;;;;;5091185;28;20035;-84
2022/04/03 06:41:00;;;;;;;1.60;0.60;;;2.70;99.90;;;;;;5090496;28;20046;-86
2022/04/03 06:43:48;;;;;;;2.78;0.90;;;2.80;99.90;;;;;;5089782;28;20063;-85
2022/04/03 06:46:20;;;;;;;2.33;0.53;;;3.00;99.90;;;;;;5086850;28;20047;-82
2022/04/03 06:48:47;;;;;;;1.50;0.53;;;3.20;99.90;;;;;;5072019;28;20582;-82
2022/04/03 06:51:17;;;;;;;4.27;0.90;;;3.40;99.90;;;;;;5072724;28;20718;-83
2022/04/03 06:53:44;;;;;;;2.43;0.77;;;3.60;99.90;;;;;;5074344;28;20059;-82
2022/04/03 06:56:10;;;;;;;2.03;0.70;;;3.80;99.90;;;;;;5082658;28;20066;-86
2022/04/03 06:59:11;;;;;;;2.07;0.70;;;4.10;99.90;;;;;;5060321;28;20036;-84
2022/04/03 07:02:09;;;;;;;4.28;0.70;;;4.30;99.90;;;;;;5096320;28;20051;-83
2022/04/03 07:04:45;;;;;;;4.00;0.77;;;4.50;99.90;;;;;;5047329;28;20054;-83
2022/04/03 07:07:39;;;;;;;1.93;0.50;;;4.70;99.90;;;;;;5060625;28;20047;-83
2022/04/03 07:10:44;;;;;;;3.77;0.77;;;4.90;99.90;;;;;;5113109;28;20043;-84
2022/04/03 07:13:53;;;;;;;2.40;0.80;;;5.10;99.90;;;;;;5113106;28;20402;-84
2022/04/03 07:16:34;;;;;;;2.50;0.63;;;5.20;99.90;;;;;;5077442;28;20067;-84
2022/04/03 07:19:02;;;;;;;1.63;0.50;;;5.30;99.90;;;;;;5096150;28;20055;-84
2022/04/03 07:21:28;;;;;;;2.50;0.57;;;5.40;99.90;;;;;;5077629;28;21481;-84
2022/04/03 07:23:55;;;;;;;2.97;0.50;;;5.50;99.90;;;;;;5061223;28;20048;-82
2022/04/03 07:26:23;;;;;;;2.20;0.57;;;5.70;99.90;;;;;;5054323;28;20035;-83
2022/04/03 07:28:52;;;;;;;2.80;0.87;;;5.70;99.90;;;;;;5076809;28;20039;-83
2022/04/03 07:31:19;;;;;;;2.43;0.60;;;5.80;99.90;;;;;;5059899;28;20039;-84
2022/04/03 07:33:46;;;;;;;1.50;0.50;;;5.90;99.90;;;;;;5043552;28;20054;-84
2022/04/03 07:36:13;;;;;;;3.23;0.70;;;6.00;99.90;;;;;;5078679;28;20035;-84
2022/04/03 07:38:39;;;;;;;1.92;0.65;;;6.00;99.90;;;;;;5081759;28;20039;-81
2022/04/03 07:41:06;;;;;;;1.30;0.40;;;6.10;99.90;;;;;;5065252;28;20035;-84
2022/04/03 07:43:32;;;;;;;4.17;0.90;;;6.20;99.90;;;;;;5080243;28;20044;-84
2022/04/03 07:45:59;;;;;;;2.65;0.70;;;6.40;99.90;;;;;;5076659;28;20043;-84
2022/04/03 07:48:28;;;;;;;1.40;0.57;;;6.50;99.90;;;;;;5061003;28;20028;-86
2022/04/03 07:50:54;;;;;;;2.85;0.80;;;6.60;99.90;;;;;;5064545;28;20023;-83
2022/04/03 07:53:22;;;;;;;2.80;0.80;;;6.90;99.90;;;;;;5049310;28;21155;-84
2022/04/03 07:55:52;;;;;;;2.80;0.55;;;7.20;99.90;;;;;;5061930;28;20044;-85
2022/04/03 07:58:21;;;;;;;1.88;0.40;;;7.30;99.90;;;;;;5078354;28;20054;-84
2022/04/03 08:00:57;;;;;;;2.40;0.40;;;7.40;99.90;;;;;;5078398;28;20032;-85
2022/04/03 08:03:25;;;;;;;2.92;0.40;;;7.40;99.90;;;;;;5076736;28;20062;-84
2022/04/03 08:05:55;;;;;;;1.02;0.45;;;7.50;99.90;;;;;;5059097;28;20031;-85
2022/04/03 08:08:24;;;;;;;2.28;0.52;;;7.60;99.90;;;;;;5078179;28;20497;-85
2022/04/03 08:11:02;;;;;;;0.98;0.40;;;7.70;99.30;;;;;;5061818;28;20028;-85
2022/04/03 08:13:29;;;;;;;2.28;0.70;;;7.60;99.10;;;;;;5077018;28;20038;-85
2022/04/03 08:15:55;;;;;;;2.13;0.80;;;7.60;99.10;;;;;;5088584;28;20058;-86
2022/04/03 08:18:31;;;;;;;2.20;0.60;;;7.60;99.10;;;;;;5080916;28;20028;-90
2022/04/03 08:21:09;;;;;;;5.00;0.50;;;7.70;99.10;;;;;;5082936;28;20046;-84
2022/04/03 08:23:49;;;;;;;2.53;0.40;;;7.90;98.90;;;;;;5028770;28;20039;-86
2022/04/03 08:26:45;;;;;;;1.55;0.57;;;8.20;98.70;;;;;;5069250;28;21406;-85
2022/04/03 08:30:01;;;;;;;2.17;0.60;;;8.60;97.40;;;;;;5065628;28;20040;-85
2022/04/03 08:32:36;;;;;;;4.82;0.60;;;8.90;97.00;;;;;;5057612;28;20033;-86
2022/04/03 08:35:11;;;;;;;1.48;0.40;;;9.30;96.30;;;;;;5057388;28;20032;-86
2022/04/03 08:37:50;;;;;;;0.95;0.40;;;9.50;95.10;;;;;;5070696;28;20051;-85
2022/04/03 08:40:22;;;;;;;2.17;0.70;;;9.50;94.60;;;;;;5038107;28;20024;-84
2022/04/03 08:42:54;;;;;;;2.65;0.50;;;9.40;94.10;;;;;;5055374;28;20047;-85
2022/04/03 08:45:22;;;;;;;1.80;0.30;;;9.10;93.80;;;;;;5056522;28;20043;-85
2022/04/03 08:47:53;;;;;;;1.27;0.43;;;8.90;93.60;;;;;;5073532;28;20024;-84
2022/04/03 08:50:28;;;;;;;2.08;0.30;;;8.70;93.70;;;;;;5054236;28;20029;-83
2022/04/03 08:53:07;;;;;;;1.65;0.32;;;8.60;93.90;;;;;;5039685;28;20028;-83
2022/04/03 08:55:36;;;;;;;1.42;0.47;;;8.50;93.60;;;;;;5055843;28;20051;-82
2022/04/03 08:58:03;;;;;;;2.40;0.50;;;8.60;94.00;;;;;;5054500;28;20039;-84
2022/04/03 09:00:49;;;;;;;3.40;0.50;;;8.60;93.30;;;;;;5073790;28;20039;-82
2022/04/03 09:04:21;;;;;;;1.55;0.38;;;8.70;93.30;;;;;;5065741;28;20040;-83
2022/04/03 09:07:16;;;;;;;2.20;0.80;;;8.90;93.00;;;;;;4999567;28;20042;-81
2022/04/03 09:09:57;;;;;;;2.17;0.40;;;9.00;92.70;;;;;;5055966;28;20048;-83
2022/04/03 09:12:44;;;;;;;2.22;0.40;;;9.20;92.30;;;;;;5071387;28;20031;-81
2022/04/03 09:15:41;;;;;;;1.98;0.40;;;9.30;91.70;;;;;;5069165;27;20050;-82
2022/04/03 09:18:08;;;;;;;2.22;0.38;;;9.20;91.80;;;;;;5092558;27;20035;-82
2022/04/03 09:20:40;;;;;;;3.00;0.40;;;9.10;91.80;;;;;;5095907;27;20035;-83
2022/04/03 09:23:17;;;;;;;3.15;0.30;;;9.20;92.00;;;;;;5088077;27;20027;-91
2022/04/03 09:25:46;;;;;;;1.00;0.40;;;9.40;91.50;;;;;;5094073;27;20058;-82
2022/04/03 09:28:17;;;;;;;3.13;0.50;;;9.70;91.30;;;;;;5114275;27;20142;-88
2022/04/03 09:30:49;;;;;;;6.20;2.78;;;10.00;91.10;;;;;;5131596;27;20042;-85
2022/04/03 09:33:20;;;;;;;2.08;0.50;;;10.30;90.80;;;;;;5114758;27;20023;-86
2022/04/03 09:36:03;;;;;;;3.03;0.73;;;10.50;89.00;;;;;;5097407;27;20043;-80
2022/04/03 09:38:32;;;;;;;3.13;0.98;;;10.60;87.00;;;;;;5114173;27;20034;-85
2022/04/03 09:41:07;;;;;;;3.67;0.73;;;10.50;87.00;;;;;;5113572;27;20039;-80
2022/04/03 09:43:49;;;;;;;3.35;0.50;;;10.30;84.90;;;;;;5129812;27;20039;-82
2022/04/03 09:46:30;;;;;;;;;;;;;;;;;;;;;
2022/04/03 09:49:24;;;;;;;1.60;0.30;;;9.80;84.80;;;;;;5132742;27;20482;-83
2022/04/03 09:51:51;;;;;;;3.10;0.55;;;9.50;85.20;;;;;;5078345;27;20051;-83
2022/04/03 09:54:22;;;;;;;1.98;0.22;;;9.30;85.70;;;;;;5130214;27;20054;-84
2022/04/03 09:56:54;;;;;;;2.78;0.30;;;9.30;86.30;;;;;;5064584;27;20112;-88
2022/04/03 09:59:27;;;;;;;3.40;0.40;;;9.40;85.60;;;;;;5061989;27;20051;-90
2022/04/03 10:02:13;;;;;;;3.22;0.40;;;9.50;86.00;;;;;;5082757;27;20046;-87
2022/04/03 10:04:48;;;;;;;1.65;0.30;;;9.90;85.00;;;;;;5105001;27;20065;-82
2022/04/03 10:07:20;;;;;;;2.58;0.20;;;10.30;83.50;;;;;;5087136;27;20031;-82
2022/04/03 10:09:53;;;;;;;1.42;0.20;;;10.50;83.00;;;;;;5078645;27;20023;-88
2022/04/03 10:12:31;;;;;;;4.50;0.28;;;10.60;81.80;;;;;;5098427;27;20056;-88
2022/04/03 10:15:09;;;;;;;1.85;0.25;;;10.70;81.40;;;;;;5076134;28;20039;-88
2022/04/03 10:18:13;;;;;;;0.95;0.20;;;10.80;81.30;;;;;;5072328;28;20056;-88
2022/04/03 10:21:18;;;;;;;2.15;0.40;;;10.60;80.00;;;;;;5070723;28;20028;-82
2022/04/03 10:24:37;;;;;;;3.25;0.40;;;10.40;81.00;;;;;;5054702;28;20039;-87
2022/04/03 10:27:40;;;;;;;1.42;0.30;;;10.20;81.30;;;;;;5059510;28;20119;-85
2022/04/03 10:30:07;;;;;;;2.45;0.40;;;9.80;81.90;;;;;;5037267;28;20031;-82
2022/04/03 10:32:34;;;;;;;3.72;0.55;;;9.50;83.10;;;;;;5087541;28;20039;-81
2022/04/03 10:35:09;;;;;;;1.75;0.45;;;9.30;83.50;;;;;;5069943;28;20971;-83
2022/04/03 10:37:42;;;;;;;2.10;0.50;;;9.20;83.80;;;;;;5088636;28;20039;-85
2022/04/03 10:40:17;;;;;;;1.63;0.47;;;9.10;84.30;;;;;;5069907;28;20487;-87
2022/04/03 10:42:51;;;;;;;3.78;0.50;;;8.90;85.00;;;;;;5055401;28;20390;-87
2022/04/03 10:45:24;;;;;;;2.67;0.50;;;8.90;85.60;;;;;;5060270;28;20383;-82
2022/04/03 10:47:51;;;;;;;1.63;0.70;;;9.00;86.10;;;;;;5069205;28;20048;-81
2022/04/03 10:50:24;;;;;;;1.95;0.40;;;9.20;85.80;;;;;;5070861;28;20040;-85
2022/04/03 10:52:56;;;;;;;2.50;0.60;;;9.30;86.00;;;;;;5038028;28;20039;-76
2022/04/03 10:55:25;;;;;;;2.03;0.50;;;9.40;86.00;;;;;;5087039;28;20475;-77
2022/04/03 10:58:06;;;;;;;2.05;0.57;;;9.60;85.50;;;;;;5086624;28;20032;-82
2022/04/03 11:00:34;;;;;;;2.75;0.40;;;9.80;86.00;;;;;;5054498;28;20066;-83
2022/04/03 11:03:14;;;;;;;3.33;0.30;;;10.10;85.40;;;;;;5054224;28;20044;-82
2022/04/03 11:05:55;;;;;;;1.67;0.50;;;10.50;85.50;;;;;;5057445;28;20059;-85
2022/04/03 11:08:43;;;;;;;3.45;0.75;;;11.00;83.90;;;;;;5086984;28;20040;-80
2022/04/03 11:11:10;;;;;;;1.90;0.40;;;11.30;83.20;;;;;;5054179;28;20031;-82
2022/04/03 11:13:40;;;;;;;1.98;0.60;;;11.40;82.90;;;;;;5069929;28;20487;-82
2022/04/03 11:16:11;;;;;;;1.35;0.40;;;11.40;82.90;;;;;;5057026;28;20047;-82
2022/04/03 11:18:44;;;;;;;3.20;0.50;;;11.20;82.70;;;;;;5055824;28;20039;-82
2022/04/03 11:21:46;;;;;;;2.10;0.40;;;10.90;82.80;;;;;;5090151;28;20028;-82
2022/04/03 11:24:17;;;;;;;1.48;0.40;;;10.60;83.00;;;;;;5088024;28;20055;-82
2022/04/03 11:26:58;;;;;;;2.88;0.73;;;10.30;83.80;;;;;;5090831;28;20369;-82
2022/04/03 11:29:28;;;;;;;4.55;0.50;;;10.20;84.00;;;;;;5106827;28;20390;-82
2022/04/03 11:32:10;;;;;;;2.78;0.50;;;10.20;83.50;;;;;;5073096;28;20499;-83
2022/04/03 11:35:05;;;;;;;2.45;0.50;;;10.10;84.00;;;;;;5073797;28;20035;-83
2022/04/03 11:41:17;;;;;;;9.57;4.82;;;10.00;84.10;;;;;;5093096;28;20051;-82
2022/04/03 11:44:13;;;;;;;5.97;2.28;;;9.90;82.90;;;;;;5073054;28;20043;-80
2022/04/03 11:46:51;;;;;;;2.67;0.60;;;9.90;83.40;;;;;;5075499;28;20040;-81
2022/04/03 11:49:28;;;;;;;3.20;0.40;;;10.00;83.30;;;;;;5074254;28;20047;-82
2022/04/03 11:52:04;;;;;;;1.80;0.30;;;10.20;83.00;;;;;;5076660;28;20031;-82
2022/04/03 11:54:39;;;;;;;1.67;0.32;;;10.50;82.80;;;;;;5091000;28;20047;-82
2022/04/03 11:57:33;;;;;;;1.45;0.50;;;11.10;82.20;;;;;;5066186;28;20410;-82
2022/04/03 12:00:09;;;;;;;2.28;0.30;;;12.00;80.40;;;;;;5095985;28;20492;-84
2022/04/03 12:03:12;;;;;;;1.70;0.30;;;12.10;79.20;;;;;;5086535;28;20052;-85
2022/04/03 12:05:51;;;;;;;0.80;0.30;;;11.80;78.70;;;;;;5078544;28;20417;-84
2022/04/03 12:08:43;;;;;;;3.47;0.30;;;11.50;78.60;;;;;;5093374;28;20404;-82
2022/04/03 12:11:29;;;;;;;4.85;0.98;;;11.20;79.60;;;;;;5078148;28;20031;-83
2022/04/03 12:14:07;;;;;;;1.98;0.65;;;10.90;79.90;;;;;;5066571;28;20044;-86
2022/04/03 12:16:39;;;;;;;1.65;0.40;;;10.60;79.70;;;;;;5080299;28;20043;-85
2022/04/03 12:19:08;;;;;;;3.75;0.55;;;10.30;80.40;;;;;;5084264;28;20141;-85
2022/04/03 12:21:56;;;;;;;1.48;0.40;;;10.00;82.00;;;;;;5094591;28;20047;-84
2022/04/03 12:24:35;;;;;;;2.92;1.30;;;9.60;83.50;;;;;;5069875;28;20043;-84
2022/04/03 12:27:32;;;;;;;2.60;0.82;;;9.40;84.80;;;;;;5069169;28;20066;-85
2022/04/03 12:30:02;;;;;;;0.50;0.25;;;9.40;85.50;;;;;;5119025;28;20031;-85
2022/04/03 12:32:45;;;;;;;1.05;0.30;;;9.40;85.20;;;;;;5076011;28;20067;-85
2022/04/03 12:35:26;;;;;;;1.05;0.30;;;9.40;85.50;;;;;;5041504;28;20028;-83
2022/04/03 12:38:12;;;;;;;1.55;0.38;;;9.50;85.40;;;;;;5077115;28;20031;-85
2022/04/03 12:40:55;;;;;;;0.57;0.20;;;9.70;85.50;;;;;;5091993;28;20044;-86
2022/04/03 12:43:39;;;;;;;1.33;0.30;;;9.80;85.50;;;;;;5101393;28;20023;-83
2022/04/03 12:47:10;;;;;;;;;;;;;;;;;;;;;
2022/04/03 12:54:03;;;;;;;1.30;0.30;;;9.90;84.90;;;;;;5102449;28;20039;-84
2022/04/03 13:00:32;;;;;;;2.13;0.30;;;9.90;85.30;;;;;;5110596;28;20031;-84
2022/04/03 13:03:22;;;;;;;0.90;0.40;;;10.00;85.40;;;;;;5085800;28;20031;-85
2022/04/03 13:05:59;;;;;;;1.13;0.30;;;9.90;85.50;;;;;;5091632;28;20039;-84
2022/04/03 13:09:32;;;;;;;2.05;0.45;;;9.70;86.20;;;;;;5066823;28;20478;-83
2022/04/03 13:12:28;;;;;;;1.58;0.30;;;9.70;86.60;;;;;;5013417;28;21288;-85
2022/04/03 13:15:10;;;;;;;1.15;0.20;;;9.60;86.40;;;;;;5041587;28;20041;-83
2022/04/03 13:17:52;;;;;;;0.75;0.20;;;9.60;86.30;;;;;;5017170;28;20057;-82
2022/04/03 13:20:20;;;;;;;2.88;0.32;;;9.60;86.30;;;;;;5002368;28;20057;-82
2022/04/03 13:22:49;;;;;;;1.50;0.40;;;9.50;86.20;;;;;;5041921;27;20406;-87
2022/04/03 13:25:17;;;;;;;3.58;1.27;;;9.50;86.10;;;;;;5059913;28;20399;-80
2022/04/03 13:27:43;;;;;;;4.78;0.50;;;9.30;87.10;;;;;;5074302;28;20043;-83
2022/04/03 13:30:14;;;;;;;3.03;1.30;;;9.10;88.20;;;;;;5075499;28;20019;-83
2022/04/03 13:32:45;;;;;;;8.02;4.72;;;9.00;89.70;;;;;;5074205;28;20035;-84
2022/04/03 13:35:23;;;;;;;15.55;8.85;;;8.90;90.10;;;;;;5108929;28;20032;-82
2022/04/03 13:37:51;;;;;;;10.15;5.63;;;8.80;90.40;;;;;;5057589;28;20032;-82
2022/04/03 13:40:18;;;;;;;6.97;4.68;;;8.90;90.80;;;;;;5107373;27;20039;-83
2022/04/03 13:42:45;;;;;;;1.83;0.60;;;9.00;91.00;;;;;;5089188;28;20035;-83
2022/04/03 13:45:12;;;;;;;1.85;0.47;;;9.30;91.10;;;;;;5091963;28;20387;-83
2022/04/03 13:47:39;;;;;;;0.80;0.30;;;9.60;91.20;;;;;;5073328;28;20386;-82
2022/04/03 13:50:06;;;;;;;1.65;0.38;;;10.30;91.30;;;;;;5037352;28;20051;-83
2022/04/03 13:52:35;;;;;;;1.27;0.40;;;11.20;90.30;;;;;;5070883;28;20039;-83
2022/04/03 13:55:02;;;;;;;1.33;0.20;;;12.30;89.90;;;;;;5089819;28;20047;-82
2022/04/03 13:57:31;;;;;;;2.20;0.30;;;13.90;86.30;;;;;;5089605;28;20036;-82
2022/04/03 13:59:59;;;;;;;2.47;0.30;;;15.40;82.10;;;;;;5072323;28;20035;-82
2022/04/03 14:02:25;;;;;;;1.33;0.55;;;16.70;78.80;;;;;;5055509;28;20483;-82
2022/04/03 14:04:52;;;;;;;1.45;0.30;;;17.60;74.30;;;;;;5072508;28;20043;-83